Hauptseite
METAR-TAF:

METAR-TAF

Flughäfen :

Flugplatz Les Eplatures

La Chaux-de-Fonds, Schweiz

Breite: 47-05-03N, Länge: 006-47-37E, Höhe: 1027 m

Beobachtung

Neuester Wetterbericht von vor 33 Minuten, um 03:20 UTC
Wind 10 kt aus Nordost
Temperatur -2°C
Luftfeuchtigkeit 86%
Luftdruck 1008 hPa
Sichtweite 10 km oder mehr
Durchbrochene Bewölkung in der Höhe von 800 ft
Durchbrochene Bewölkung in der Höhe von 1300 ft

METAR: LSGC 190320Z AUTO 04010KT 9999 BKN008 BKN013 M02/M04 Q1008

Zeit: 04:53 (03:53 UTC)

Prognose

Neuester Wetterbericht von vor 11 Stunden und 45 Minuten, um 16:08 UTC
Gültige Prognose vom 18 um 16 UTC bis 18 um 24 UTC
Wind 5 kt aus Nordost
Sichtweite: 6000 m
Durchbrochene Bewölkung in der Höhe von 600 ft

TAF: LSGC 181608Z 1816/1824 05005KT 6000 BKN006

Wetterbeobachtungen und Prognosen von mehr als 4000 Flughäfen (METAR und TAF Bericht).

Die verfügbaren Stationen werden durch gelbe und rote Markierungen auf der Karte dargestellt.

Führen Sie die Maus auf sie, um den Namen der Station zu sehen.

Darauf klicken, um die Beobachtung von Wetterbeobachtungen und Prognosen zu sehen.

Um die Karte zu ändern : klicken Sie auf den grünen Tasten mit einem schwarzen Kreuz Zum Vergrößern, auf den grünen Button mit einem Gedankenstrich zu verkleinern, oder auf die grünen Pfeile für benachbarte Karten.


METAR-TAF: